createdAt,value
2018-07-04T00:02:44.532Z,20.83
2018-07-04T00:05:25.447Z,20.81
2018-07-04T00:08:12.481Z,20.82
2018-07-04T00:10:59.939Z,20.84
2018-07-04T00:13:47.003Z,20.81
2018-07-04T00:16:34.237Z,20.82
2018-07-04T00:19:21.420Z,20.80
2018-07-04T00:22:08.539Z,20.77
2018-07-04T00:24:56.604Z,20.75
2018-07-04T00:27:43.661Z,20.65
2018-07-04T00:30:30.824Z,20.56
2018-07-04T00:33:18.435Z,20.50
2018-07-04T00:36:05.770Z,20.43
2018-07-04T00:38:52.999Z,20.43
2018-07-04T00:41:40.019Z,20.39
2018-07-04T00:44:27.439Z,20.37
2018-07-04T00:47:14.346Z,20.36
2018-07-04T00:50:01.572Z,20.34
2018-07-04T00:52:48.549Z,20.34
2018-07-04T00:55:35.949Z,20.33
2018-07-04T00:58:23.423Z,20.31
2018-07-04T01:01:11.400Z,20.28
2018-07-04T01:03:58.391Z,20.24
2018-07-04T01:06:45.588Z,20.20
2018-07-04T01:09:32.631Z,20.14
2018-07-04T01:12:20.867Z,20.07
2018-07-04T01:15:07.747Z,20.01
2018-07-04T01:17:55.309Z,19.97
2018-07-04T01:20:47.641Z,19.93
2018-07-04T01:23:34.729Z,19.93
2018-07-04T01:26:15.946Z,19.89
2018-07-04T01:29:03.060Z,19.86
2018-07-04T01:31:50.281Z,19.81
2018-07-04T01:34:37.604Z,19.80
2018-07-04T01:37:25.337Z,19.76
2018-07-04T01:40:12.409Z,19.75
2018-07-04T01:42:59.328Z,19.77
2018-07-04T01:45:40.656Z,19.74
2018-07-04T01:48:27.977Z,19.70
2018-07-04T01:51:15.300Z,19.63
2018-07-04T01:54:02.506Z,19.54
2018-07-04T01:56:49.701Z,19.48
2018-07-04T01:59:30.719Z,19.45
2018-07-04T02:02:17.943Z,19.45
2018-07-04T02:05:04.958Z,19.46
2018-07-04T02:07:52.893Z,19.44
2018-07-04T02:10:40.111Z,19.40
2018-07-04T02:13:27.287Z,19.39
2018-07-04T02:16:14.550Z,19.41
2018-07-04T02:19:02.543Z,19.34
2018-07-04T02:21:50.162Z,19.35
2018-07-04T02:24:38.024Z,19.48
2018-07-04T02:27:19.505Z,19.45
2018-07-04T02:30:07.061Z,19.40
2018-07-04T02:32:54.601Z,19.34
2018-07-04T02:35:41.795Z,19.28
2018-07-04T02:38:29.143Z,19.22
2018-07-04T02:41:15.977Z,19.15
2018-07-04T02:44:03.787Z,19.07
2018-07-04T02:46:51.595Z,19.00
2018-07-04T02:49:38.940Z,18.99
2018-07-04T02:52:26.369Z,19.03
2018-07-04T02:55:13.382Z,19.11
2018-07-04T02:58:00.438Z,19.23
2018-07-04T03:00:47.500Z,19.36
2018-07-04T03:03:34.634Z,19.47
2018-07-04T03:06:21.748Z,19.55
2018-07-04T03:09:09.072Z,19.59
2018-07-04T03:11:56.204Z,19.62
2018-07-04T03:14:43.827Z,19.65
2018-07-04T03:17:31.038Z,19.64
2018-07-04T03:20:18.438Z,19.62
2018-07-04T03:23:06.095Z,19.64
2018-07-04T03:25:53.387Z,19.68
2018-07-04T03:28:40.490Z,19.74
2018-07-04T03:31:28.163Z,19.75
2018-07-04T03:34:15.318Z,19.71
2018-07-04T03:37:02.466Z,19.66
2018-07-04T03:39:49.693Z,19.65
2018-07-04T03:42:36.895Z,19.57
2018-07-04T03:45:24.444Z,19.46
2018-07-04T03:48:11.538Z,19.33
2018-07-04T03:50:59.014Z,19.27
2018-07-04T03:53:46.069Z,19.21
2018-07-04T03:56:33.030Z,19.15
2018-07-04T03:59:20.033Z,19.10
2018-07-04T04:02:07.284Z,19.09
2018-07-04T04:04:55.114Z,19.05
2018-07-04T04:07:42.026Z,19.07
2018-07-04T04:10:29.259Z,19.09
2018-07-04T04:13:16.205Z,19.10
2018-07-04T04:16:03.477Z,19.08
2018-07-04T04:18:50.548Z,19.10
2018-07-04T04:21:37.756Z,19.17
2018-07-04T04:24:25.639Z,19.21
2018-07-04T04:27:12.995Z,19.22
2018-07-04T04:30:00.098Z,19.30
2018-07-04T04:32:47.172Z,19.38
2018-07-04T04:35:34.355Z,19.41
2018-07-04T04:38:21.544Z,19.42
2018-07-04T04:41:08.997Z,19.46
2018-07-04T04:43:56.298Z,19.58
2018-07-04T04:46:43.514Z,19.50
2018-07-04T04:49:30.630Z,19.60
2018-07-04T04:52:17.724Z,19.73
2018-07-04T04:55:04.780Z,19.84
2018-07-04T04:57:52.150Z,19.97
2018-07-04T05:00:39.509Z,20.10
2018-07-04T05:03:27.045Z,20.26
2018-07-04T05:06:14.983Z,20.42
2018-07-04T05:09:02.340Z,20.58
2018-07-04T05:11:49.401Z,20.79
2018-07-04T05:14:36.631Z,20.96
2018-07-04T05:17:23.953Z,21.07
2018-07-04T05:20:11.132Z,21.20
2018-07-04T05:22:58.470Z,21.33
2018-07-04T05:25:45.623Z,21.43
2018-07-04T05:28:32.944Z,21.38
2018-07-04T05:31:20.164Z,21.53
2018-07-04T05:34:07.236Z,21.65
2018-07-04T05:36:54.252Z,21.76
2018-07-04T05:39:41.771Z,21.84
2018-07-04T05:42:29.122Z,21.94
2018-07-04T05:45:16.279Z,22.14
2018-07-04T05:48:03.673Z,22.38
2018-07-04T05:50:50.542Z,22.49
2018-07-04T05:53:37.916Z,22.63
2018-07-04T05:56:25.645Z,22.88
2018-07-04T05:59:13.772Z,23.05
2018-07-04T06:02:00.862Z,23.19
2018-07-04T06:04:48.246Z,23.40
2018-07-04T06:07:35.535Z,23.64
2018-07-04T06:10:23.183Z,23.89
2018-07-04T06:13:11.322Z,24.00
2018-07-04T06:15:58.594Z,24.23
2018-07-04T06:18:46.672Z,24.41
2018-07-04T06:21:33.853Z,24.54
2018-07-04T06:24:20.913Z,25.70
2018-07-04T06:27:08.486Z,26.78
2018-07-04T06:29:55.565Z,27.72
2018-07-04T06:32:43.095Z,27.94
2018-07-04T06:35:30.414Z,28.23
2018-07-04T06:37:59.002Z,28.67
2018-07-04T06:40:27.535Z,29.21
2018-07-04T06:42:56.162Z,29.77
2018-07-04T06:45:24.939Z,30.12
2018-07-04T06:47:54.148Z,30.18
2018-07-04T06:50:23.263Z,30.35
2018-07-04T06:52:52.097Z,30.72
2018-07-04T06:55:20.985Z,30.97
2018-07-04T06:57:49.490Z,31.30
2018-07-04T07:00:18.119Z,31.15
2018-07-04T07:02:46.614Z,31.43
2018-07-04T07:05:33.935Z,31.72
2018-07-04T07:08:20.940Z,31.78
2018-07-04T07:11:08.153Z,31.77
2018-07-04T07:13:55.453Z,32.20
2018-07-04T07:16:42.630Z,32.38
2018-07-04T07:19:29.751Z,32.24
2018-07-04T07:22:17.169Z,32.56
2018-07-04T07:25:05.096Z,32.99
2018-07-04T07:27:52.409Z,33.34
2018-07-04T07:30:39.830Z,33.41
2018-07-04T07:33:27.223Z,33.52
2018-07-04T07:36:14.662Z,33.74
2018-07-04T07:39:02.374Z,33.95
2018-07-04T07:41:49.708Z,34.15
2018-07-04T07:44:37.361Z,33.83
2018-07-04T07:47:24.527Z,32.46
2018-07-04T07:50:11.746Z,32.97
2018-07-04T07:52:59.136Z,33.78
2018-07-04T07:55:47.836Z,34.51
2018-07-04T07:58:36.054Z,34.76
2018-07-04T08:01:23.111Z,34.69
2018-07-04T08:04:10.730Z,35.06
2018-07-04T08:07:02.098Z,35.47
2018-07-04T08:09:50.131Z,35.30
2018-07-04T08:12:41.007Z,35.72
2018-07-04T08:15:28.506Z,35.37
2018-07-04T08:18:16.614Z,33.81
2018-07-04T08:21:04.025Z,35.13
2018-07-04T08:23:51.373Z,35.70
2018-07-04T08:26:38.981Z,35.48
2018-07-04T08:29:27.032Z,34.57
2018-07-04T08:32:15.438Z,35.02
2018-07-04T08:35:02.548Z,35.50
2018-07-04T08:37:49.792Z,35.91
2018-07-04T08:40:38.589Z,36.77
2018-07-04T08:43:26.732Z,36.93
2018-07-04T08:46:14.313Z,37.07
2018-07-04T08:49:01.764Z,37.75
2018-07-04T08:51:49.070Z,37.12
2018-07-04T08:54:37.058Z,33.21
2018-07-04T08:57:24.214Z,32.36
2018-07-04T09:00:11.528Z,31.39
2018-07-04T09:02:58.944Z,33.87
2018-07-04T09:05:46.179Z,35.23
2018-07-04T09:08:33.609Z,36.02
2018-07-04T09:11:20.710Z,36.37
2018-07-04T09:14:08.352Z,37.07
2018-07-04T09:16:55.710Z,37.52
2018-07-04T09:19:43.024Z,36.76
2018-07-04T09:22:30.331Z,36.99
2018-07-04T09:25:18.238Z,36.70
2018-07-04T09:28:05.915Z,35.86
2018-07-04T09:30:53.231Z,35.86
2018-07-04T09:33:41.140Z,36.74
2018-07-04T09:36:29.692Z,37.90
2018-07-04T09:39:17.204Z,36.76
2018-07-04T09:42:04.458Z,33.68
2018-07-04T09:44:51.485Z,33.27
2018-07-04T09:47:39.533Z,35.59
2018-07-04T09:50:27.428Z,37.24
2018-07-04T09:53:14.778Z,37.11
2018-07-04T09:55:56.878Z,36.89
2018-07-04T09:58:44.756Z,38.01
2018-07-04T10:01:33.160Z,38.99
2018-07-04T10:04:20.793Z,38.94
2018-07-04T10:07:08.939Z,38.86
2018-07-04T10:09:57.457Z,38.48
2018-07-04T10:12:44.996Z,37.51
2018-07-04T10:15:32.447Z,37.19
2018-07-04T10:18:20.093Z,36.00
2018-07-04T10:21:08.272Z,37.27
2018-07-04T10:23:57.674Z,38.03
2018-07-04T10:26:45.780Z,38.66
2018-07-04T10:29:34.832Z,38.45
2018-07-04T10:32:22.935Z,39.07
2018-07-04T10:35:11.077Z,35.86
2018-07-04T10:37:58.657Z,36.20
2018-07-04T10:40:46.887Z,34.15
2018-07-04T10:43:38.844Z,33.75
2018-07-04T10:46:26.626Z,34.33
2018-07-04T10:49:14.856Z,35.80
2018-07-04T10:52:02.432Z,35.48
2018-07-04T10:54:49.811Z,34.78
2018-07-04T10:57:37.305Z,36.16
2018-07-04T11:00:25.643Z,36.74
2018-07-04T11:03:13.266Z,36.80
2018-07-04T11:06:01.027Z,36.14
2018-07-04T11:08:48.660Z,36.11
2018-07-04T11:11:37.047Z,36.31
2018-07-04T11:14:24.486Z,37.09
2018-07-04T11:17:12.449Z,38.30
2018-07-04T11:19:59.860Z,38.76
2018-07-04T11:22:47.727Z,38.45
2018-07-04T11:25:35.136Z,39.02
2018-07-04T11:28:22.640Z,38.93
2018-07-04T11:31:10.556Z,38.48
2018-07-04T11:33:58.003Z,39.30
2018-07-04T11:36:46.354Z,38.94
2018-07-04T11:39:33.967Z,37.21
2018-07-04T11:42:22.015Z,35.42
2018-07-04T11:45:10.282Z,35.44
2018-07-04T11:47:40.159Z,35.27
2018-07-04T11:50:10.693Z,34.95
2018-07-04T11:52:39.882Z,31.99
2018-07-04T11:55:08.930Z,33.65
2018-07-04T11:57:38.389Z,34.65
2018-07-04T12:00:07.300Z,34.86
2018-07-04T12:02:37.216Z,34.18
2018-07-04T12:05:25.962Z,33.73
2018-07-04T12:07:56.662Z,33.13
2018-07-04T12:10:26.361Z,33.03
2018-07-04T12:12:55.781Z,34.51
2018-07-04T12:15:25.620Z,35.97
2018-07-04T12:17:54.907Z,36.66
2018-07-04T12:20:24.160Z,37.37
2018-07-04T12:22:53.207Z,38.15
2018-07-04T12:25:22.107Z,37.77
2018-07-04T12:27:51.580Z,37.28
2018-07-04T12:30:21.930Z,36.12
2018-07-04T12:32:52.278Z,36.17
2018-07-04T12:35:23.228Z,36.74
2018-07-04T12:37:54.255Z,37.38
2018-07-04T12:40:25.799Z,36.77
2018-07-04T12:42:56.161Z,35.64
2018-07-04T12:45:25.748Z,34.55
2018-07-04T12:47:55.716Z,35.86
2018-07-04T12:50:30.603Z,35.06
2018-07-04T12:53:00.492Z,35.57
2018-07-04T12:55:49.121Z,36.22
2018-07-04T12:58:37.635Z,36.70
2018-07-04T13:01:26.444Z,36.42
2018-07-04T13:04:15.893Z,36.53
2018-07-04T13:07:05.036Z,36.12
2018-07-04T13:09:54.197Z,35.92
2018-07-04T13:12:45.418Z,34.40
2018-07-04T13:15:34.010Z,35.46
2018-07-04T13:18:22.787Z,34.41
2018-07-04T13:21:11.316Z,35.82
2018-07-04T13:23:58.951Z,34.99
2018-07-04T13:26:48.695Z,35.28
2018-07-04T13:29:36.562Z,34.71
2018-07-04T13:32:24.797Z,35.26
2018-07-04T13:35:12.967Z,34.94
2018-07-04T13:38:01.836Z,33.56
2018-07-04T13:40:50.997Z,33.05
2018-07-04T13:43:33.795Z,34.14
2018-07-04T13:46:23.186Z,33.26
2018-07-04T13:49:13.049Z,33.67
2018-07-04T13:52:02.167Z,33.55
2018-07-04T13:54:49.690Z,33.02
2018-07-04T13:57:37.715Z,33.06
2018-07-04T14:00:25.686Z,32.69
2018-07-04T14:03:14.115Z,32.60
2018-07-04T14:06:03.484Z,33.54
2018-07-04T14:08:51.354Z,34.78
2018-07-04T14:11:39.533Z,33.62
2018-07-04T14:14:27.396Z,34.91
2018-07-04T14:17:15.351Z,34.52
2018-07-04T14:20:03.157Z,34.87
2018-07-04T14:22:51.331Z,35.37
2018-07-04T14:25:38.752Z,35.93
2018-07-04T14:28:27.239Z,36.49
2018-07-04T14:31:14.724Z,35.63
2018-07-04T14:34:03.411Z,34.79
2018-07-04T14:36:50.752Z,35.99
2018-07-04T14:39:39.092Z,36.08
2018-07-04T14:42:26.929Z,36.64
2018-07-04T14:45:14.692Z,36.47
2018-07-04T14:48:02.280Z,35.70
2018-07-04T14:50:50.076Z,35.37
2018-07-04T14:53:39.292Z,35.82
2018-07-04T14:56:27.677Z,36.17
2018-07-04T14:59:15.089Z,36.06
2018-07-04T15:02:03.072Z,36.24
2018-07-04T15:04:50.216Z,36.07
2018-07-04T15:07:38.760Z,35.54
2018-07-04T15:10:26.235Z,35.31
2018-07-04T15:13:13.974Z,35.17
2018-07-04T15:16:01.725Z,35.51
2018-07-04T15:18:49.176Z,35.64
2018-07-04T15:21:36.879Z,35.54
2018-07-04T15:24:24.218Z,36.18
2018-07-04T15:27:12.386Z,36.38
2018-07-04T15:29:59.540Z,36.04
2018-07-04T15:32:47.636Z,35.34
2018-07-04T15:35:35.133Z,35.40
2018-07-04T15:38:22.443Z,35.39
2018-07-04T15:41:10.773Z,34.35
2018-07-04T15:43:58.200Z,33.34
2018-07-04T15:46:45.808Z,32.74
2018-07-04T15:49:33.288Z,32.47
2018-07-04T15:52:20.802Z,32.21
2018-07-04T15:55:09.141Z,32.53
2018-07-04T15:57:56.666Z,31.37
2018-07-04T16:00:44.107Z,31.52
2018-07-04T16:03:31.321Z,31.10
2018-07-04T16:06:19.525Z,30.63
2018-07-04T16:09:07.263Z,30.65
2018-07-04T16:11:55.669Z,30.43
2018-07-04T16:14:43.876Z,30.22
2018-07-04T16:17:32.157Z,29.97
2018-07-04T16:20:19.567Z,30.34
2018-07-04T16:23:07.623Z,30.19
2018-07-04T16:25:55.205Z,29.96
2018-07-04T16:28:42.996Z,30.17
2018-07-04T16:31:30.563Z,30.13
2018-07-04T16:34:18.195Z,30.18
2018-07-04T16:37:06.121Z,29.99
2018-07-04T16:39:54.043Z,30.09
2018-07-04T16:42:42.647Z,30.07
2018-07-04T16:45:30.369Z,30.00
2018-07-04T16:48:17.530Z,30.41
2018-07-04T16:51:05.488Z,30.76
2018-07-04T16:53:52.769Z,30.70
2018-07-04T16:56:40.939Z,30.24
2018-07-04T16:59:28.360Z,30.15
2018-07-04T17:02:17.039Z,29.78
2018-07-04T17:05:04.305Z,29.68
2018-07-04T17:07:51.471Z,29.60
2018-07-04T17:10:39.072Z,29.64
2018-07-04T17:13:26.313Z,29.59
2018-07-04T17:16:13.885Z,29.64
2018-07-04T17:19:02.091Z,29.80
2018-07-04T17:21:49.404Z,29.75
2018-07-04T17:24:37.954Z,29.79
2018-07-04T17:27:25.328Z,29.71
2018-07-04T17:30:13.805Z,29.62
2018-07-04T17:33:00.942Z,29.50
2018-07-04T17:35:48.383Z,29.45
2018-07-04T17:38:35.604Z,29.23
2018-07-04T17:41:23.792Z,29.30
2018-07-04T17:44:05.184Z,29.30
2018-07-04T17:46:53.414Z,29.37
2018-07-04T17:49:41.412Z,29.49
2018-07-04T17:52:29.015Z,29.24
2018-07-04T17:55:16.429Z,28.94
2018-07-04T17:58:04.915Z,28.92
2018-07-04T18:00:52.518Z,29.02
2018-07-04T18:03:40.295Z,28.77
2018-07-04T18:06:28.251Z,28.84
2018-07-04T18:09:10.423Z,28.75
2018-07-04T18:11:58.114Z,28.49
2018-07-04T18:14:45.461Z,28.38
2018-07-04T18:17:32.830Z,28.36
2018-07-04T18:20:20.254Z,28.34
2018-07-04T18:23:08.128Z,28.35
2018-07-04T18:25:55.579Z,28.44
2018-07-04T18:28:43.174Z,28.48
2018-07-04T18:31:31.044Z,28.42
2018-07-04T18:34:19.753Z,28.17
2018-07-04T18:37:06.851Z,28.08
2018-07-04T18:39:54.877Z,28.11
2018-07-04T18:42:43.647Z,28.05
2018-07-04T18:45:32.234Z,27.99
2018-07-04T18:48:21.290Z,27.91
2018-07-04T18:51:09.353Z,27.78
2018-07-04T18:53:58.240Z,27.69
2018-07-04T18:56:45.576Z,27.64
2018-07-04T18:59:34.146Z,27.60
2018-07-04T19:02:21.805Z,27.57
2018-07-04T19:05:09.867Z,27.51
2018-07-04T19:07:58.012Z,27.42
2018-07-04T19:10:46.379Z,27.29
2018-07-04T19:13:35.373Z,27.19
2018-07-04T19:16:24.598Z,26.95
2018-07-04T19:19:13.102Z,26.75
2018-07-04T19:22:00.901Z,26.54
2018-07-04T19:24:50.212Z,26.41
2018-07-04T19:27:38.838Z,26.35
2018-07-04T19:30:27.458Z,26.23
2018-07-04T19:33:15.487Z,26.09
2018-07-04T19:35:58.204Z,26.08
2018-07-04T19:38:46.515Z,26.10
2018-07-04T19:41:36.527Z,26.10
2018-07-04T19:44:25.948Z,25.81
2018-07-04T19:47:14.972Z,25.46
2018-07-04T19:50:04.355Z,25.35
2018-07-04T19:52:52.510Z,25.19
2018-07-04T19:55:41.157Z,25.14
2018-07-04T19:58:29.811Z,25.05
2018-07-04T20:01:17.923Z,25.06
2018-07-04T20:04:06.829Z,25.08
2018-07-04T20:06:55.013Z,25.07
2018-07-04T20:09:39.363Z,24.97
2018-07-04T20:12:28.013Z,24.82
2018-07-04T20:15:16.756Z,24.79
2018-07-04T20:18:06.961Z,24.73
2018-07-04T20:20:55.771Z,24.69
2018-07-04T20:23:44.565Z,24.74
2018-07-04T20:26:32.935Z,24.61
2018-07-04T20:29:20.951Z,24.42
2018-07-04T20:32:11.007Z,24.30
2018-07-04T20:34:59.495Z,24.29
2018-07-04T20:37:41.851Z,24.38
2018-07-04T20:40:30.058Z,24.33
2018-07-04T20:43:12.557Z,24.21
2018-07-04T20:45:56.100Z,24.08
2018-07-04T20:48:38.935Z,24.01
2018-07-04T20:51:21.692Z,23.87
2018-07-04T20:54:09.959Z,23.85
2018-07-04T20:56:58.326Z,23.85
2018-07-04T20:59:45.809Z,23.82
2018-07-04T21:02:34.013Z,23.68
2018-07-04T21:05:22.190Z,23.57
2018-07-04T21:08:09.840Z,23.44
2018-07-04T21:10:57.054Z,23.29
2018-07-04T21:13:45.548Z,23.22
2018-07-04T21:16:27.364Z,23.13
2018-07-04T21:19:15.313Z,23.04
2018-07-04T21:21:57.773Z,22.98
2018-07-04T21:24:45.485Z,22.90
2018-07-04T21:27:34.184Z,22.84
2018-07-04T21:30:22.127Z,22.78
2018-07-04T21:33:10.136Z,22.65
2018-07-04T21:35:58.463Z,22.67
2018-07-04T21:38:46.748Z,22.57
2018-07-04T21:41:34.933Z,22.44
2018-07-04T21:44:22.761Z,22.36
2018-07-04T21:47:11.841Z,22.39
2018-07-04T21:49:59.721Z,22.43
2018-07-04T21:52:47.717Z,22.51
2018-07-04T21:55:35.219Z,22.62
2018-07-04T21:58:23.464Z,22.67
2018-07-04T22:01:10.964Z,22.60
2018-07-04T22:03:58.946Z,22.59
2018-07-04T22:06:46.459Z,22.59
2018-07-04T22:09:35.214Z,22.48
2018-07-04T22:12:23.014Z,22.45
2018-07-04T22:15:11.134Z,22.43
2018-07-04T22:17:59.155Z,22.39
2018-07-04T22:20:40.732Z,22.41
2018-07-04T22:23:29.305Z,22.37
2018-07-04T22:26:17.175Z,22.30
2018-07-04T22:29:05.546Z,22.28
2018-07-04T22:31:53.258Z,22.24
2018-07-04T22:34:40.062Z,22.17
2018-07-04T22:37:28.820Z,22.03
2018-07-04T22:40:16.424Z,21.96
2018-07-04T22:43:03.847Z,21.95
2018-07-04T22:45:45.370Z,21.89
2018-07-04T22:48:32.612Z,21.87
2018-07-04T22:51:20.001Z,21.89
2018-07-04T22:54:07.223Z,21.86
2018-07-04T22:56:54.677Z,21.83
2018-07-04T22:59:41.877Z,21.80
2018-07-04T23:02:29.164Z,21.79
2018-07-04T23:05:16.951Z,21.75
2018-07-04T23:08:04.481Z,21.77
2018-07-04T23:10:51.704Z,21.71
2018-07-04T23:13:39.122Z,21.68
2018-07-04T23:16:26.541Z,21.60
2018-07-04T23:19:13.638Z,21.54
2018-07-04T23:22:00.681Z,21.55
2018-07-04T23:24:47.686Z,21.47
2018-07-04T23:27:34.898Z,21.49
2018-07-04T23:30:22.209Z,21.50
2018-07-04T23:33:09.254Z,21.44
2018-07-04T23:35:56.541Z,21.31
2018-07-04T23:38:43.589Z,21.23
2018-07-04T23:41:30.708Z,21.17
2018-07-04T23:44:17.991Z,21.19
2018-07-04T23:47:05.788Z,21.21
2018-07-04T23:49:52.891Z,21.17
2018-07-04T23:52:40.197Z,21.08
2018-07-04T23:55:27.206Z,20.98
2018-07-04T23:58:14.152Z,20.92
